sensor_id;sensor_type;location;lat;lon;timestamp;temperature;humidity
10905;DHT22;5505;51.450;9.254;2022-08-05T00:00:18;21.60;99.90
10905;DHT22;5505;51.450;9.254;2022-08-05T00:03:05;21.50;99.90
10905;DHT22;5505;51.450;9.254;2022-08-05T00:05:52;21.60;99.90
10905;DHT22;5505;51.450;9.254;2022-08-05T00:08:41;21.60;99.90
10905;DHT22;5505;51.450;9.254;2022-08-05T00:11:28;21.50;99.90
10905;DHT22;5505;51.450;9.254;2022-08-05T00:14:15;21.40;99.90
10905;DHT22;5505;51.450;9.254;2022-08-05T00:17:02;21.40;99.90
10905;DHT22;5505;51.450;9.254;2022-08-05T00:19:49;21.40;99.90
10905;DHT22;5505;51.450;9.254;2022-08-05T00:22:36;21.40;99.90
10905;DHT22;5505;51.450;9.254;2022-08-05T00:25:24;21.40;99.90
10905;DHT22;5505;51.450;9.254;2022-08-05T00:28:11;21.40;99.90
10905;DHT22;5505;51.450;9.254;2022-08-05T00:30:58;21.40;99.90
10905;DHT22;5505;51.450;9.254;2022-08-05T00:33:44;21.30;99.90
10905;DHT22;5505;51.450;9.254;2022-08-05T00:36:31;21.40;99.90
10905;DHT22;5505;51.450;9.254;2022-08-05T00:39:18;21.40;99.90
10905;DHT22;5505;51.450;9.254;2022-08-05T00:42:06;21.20;99.90
10905;DHT22;5505;51.450;9.254;2022-08-05T00:44:53;21.30;99.90
10905;DHT22;5505;51.450;9.254;2022-08-05T00:47:40;21.20;99.90
10905;DHT22;5505;51.450;9.254;2022-08-05T00:50:27;21.30;99.90
10905;DHT22;5505;51.450;9.254;2022-08-05T00:53:15;21.30;99.90
10905;DHT22;5505;51.450;9.254;2022-08-05T00:56:02;21.20;99.90
10905;DHT22;5505;51.450;9.254;2022-08-05T00:58:51;21.30;99.90
10905;DHT22;5505;51.450;9.254;2022-08-05T01:01:39;21.20;99.90
10905;DHT22;5505;51.450;9.254;2022-08-05T01:04:26;21.20;99.90
10905;DHT22;5505;51.450;9.254;2022-08-05T01:07:13;21.20;99.90
10905;DHT22;5505;51.450;9.254;2022-08-05T01:10:00;21.20;99.90
10905;DHT22;5505;51.450;9.254;2022-08-05T01:12:52;21.20;99.90
10905;DHT22;5505;51.450;9.254;2022-08-05T01:15:49;21.10;99.90
10905;DHT22;5505;51.450;9.254;2022-08-05T01:18:41;21.10;99.90
10905;DHT22;5505;51.450;9.254;2022-08-05T01:24:53;21.00;99.90
10905;DHT22;5505;51.450;9.254;2022-08-05T01:31:09;20.90;99.90
10905;DHT22;5505;51.450;9.254;2022-08-05T01:34:02;20.90;99.90
10905;DHT22;5505;51.450;9.254;2022-08-05T01:37:03;20.80;99.90
10905;DHT22;5505;51.450;9.254;2022-08-05T01:39:52;20.80;99.90
10905;DHT22;5505;51.450;9.254;2022-08-05T01:42:42;20.70;99.90
10905;DHT22;5505;51.450;9.254;2022-08-05T01:45:31;20.70;99.90
10905;DHT22;5505;51.450;9.254;2022-08-05T01:48:20;20.70;99.90
10905;DHT22;5505;51.450;9.254;2022-08-05T01:51:08;20.60;99.90
10905;DHT22;5505;51.450;9.254;2022-08-05T01:53:55;19.80;99.90
10905;DHT22;5505;51.450;9.254;2022-08-05T01:56:45;20.60;99.90
10905;DHT22;5505;51.450;9.254;2022-08-05T01:59:33;20.60;99.90
10905;DHT22;5505;51.450;9.254;2022-08-05T02:02:22;20.60;99.90
10905;DHT22;5505;51.450;9.254;2022-08-05T02:05:11;20.60;99.90
10905;DHT22;5505;51.450;9.254;2022-08-05T02:07:58;20.50;99.90
10905;DHT22;5505;51.450;9.254;2022-08-05T02:10:49;20.50;99.90
10905;DHT22;5505;51.450;9.254;2022-08-05T02:13:40;20.40;99.90
10905;DHT22;5505;51.450;9.254;2022-08-05T02:16:33;20.40;99.90
10905;DHT22;5505;51.450;9.254;2022-08-05T02:19:30;20.20;99.90
10905;DHT22;5505;51.450;9.254;2022-08-05T02:22:20;20.00;99.90
10905;DHT22;5505;51.450;9.254;2022-08-05T02:25:13;19.90;99.90
10905;DHT22;5505;51.450;9.254;2022-08-05T02:28:02;19.70;99.90
10905;DHT22;5505;51.450;9.254;2022-08-05T02:30:54;19.40;99.90
10905;DHT22;5505;51.450;9.254;2022-08-05T02:33:46;18.80;99.90
10905;DHT22;5505;51.450;9.254;2022-08-05T02:36:40;19.00;99.90
10905;DHT22;5505;51.450;9.254;2022-08-05T02:39:30;19.00;99.90
10905;DHT22;5505;51.450;9.254;2022-08-05T02:42:20;18.90;99.90
10905;DHT22;5505;51.450;9.254;2022-08-05T02:45:09;18.90;99.90
10905;DHT22;5505;51.450;9.254;2022-08-05T02:47:56;18.80;99.90
10905;DHT22;5505;51.450;9.254;2022-08-05T02:50:45;18.90;99.90
10905;DHT22;5505;51.450;9.254;2022-08-05T02:53:37;18.90;99.90
10905;DHT22;5505;51.450;9.254;2022-08-05T02:56:25;18.90;99.90
10905;DHT22;5505;51.450;9.254;2022-08-05T02:59:16;19.00;99.90
10905;DHT22;5505;51.450;9.254;2022-08-05T03:02:05;19.00;99.90
10905;DHT22;5505;51.450;9.254;2022-08-05T03:04:54;19.00;99.90
10905;DHT22;5505;51.450;9.254;2022-08-05T03:07:43;19.00;99.90
10905;DHT22;5505;51.450;9.254;2022-08-05T03:10:31;19.00;99.90
10905;DHT22;5505;51.450;9.254;2022-08-05T03:13:19;18.90;99.90
10905;DHT22;5505;51.450;9.254;2022-08-05T03:16:06;18.90;99.90
10905;DHT22;5505;51.450;9.254;2022-08-05T03:18:53;18.80;99.90
10905;DHT22;5505;51.450;9.254;2022-08-05T03:21:40;18.70;99.90
10905;DHT22;5505;51.450;9.254;2022-08-05T03:24:27;18.60;99.90
10905;DHT22;5505;51.450;9.254;2022-08-05T03:27:15;18.50;99.90
10905;DHT22;5505;51.450;9.254;2022-08-05T03:30:03;18.50;99.90
10905;DHT22;5505;51.450;9.254;2022-08-05T03:32:49;18.50;99.90
10905;DHT22;5505;51.450;9.254;2022-08-05T03:35:36;18.60;99.90
10905;DHT22;5505;51.450;9.254;2022-08-05T03:38:24;18.70;99.90
10905;DHT22;5505;51.450;9.254;2022-08-05T03:41:11;18.70;99.90
10905;DHT22;5505;51.450;9.254;2022-08-05T03:43:59;18.50;99.90
10905;DHT22;5505;51.450;9.254;2022-08-05T03:46:46;18.50;99.90
10905;DHT22;5505;51.450;9.254;2022-08-05T03:49:33;18.40;99.90
10905;DHT22;5505;51.450;9.254;2022-08-05T03:52:23;18.50;99.90
10905;DHT22;5505;51.450;9.254;2022-08-05T03:55:16;18.60;99.90
10905;DHT22;5505;51.450;9.254;2022-08-05T03:58:08;18.00;99.90
10905;DHT22;5505;51.450;9.254;2022-08-05T04:00:59;18.80;99.90
10905;DHT22;5505;51.450;9.254;2022-08-05T04:03:49;18.90;99.90
10905;DHT22;5505;51.450;9.254;2022-08-05T04:06:36;18.90;99.90
10905;DHT22;5505;51.450;9.254;2022-08-05T04:09:23;18.90;99.90
10905;DHT22;5505;51.450;9.254;2022-08-05T04:12:11;19.10;99.90
10905;DHT22;5505;51.450;9.254;2022-08-05T04:14:58;19.10;99.90
10905;DHT22;5505;51.450;9.254;2022-08-05T04:17:47;19.10;99.90
10905;DHT22;5505;51.450;9.254;2022-08-05T04:20:34;19.10;99.90
10905;DHT22;5505;51.450;9.254;2022-08-05T04:23:22;19.10;99.90
10905;DHT22;5505;51.450;9.254;2022-08-05T04:26:09;19.20;99.90
10905;DHT22;5505;51.450;9.254;2022-08-05T04:28:56;19.10;99.90
10905;DHT22;5505;51.450;9.254;2022-08-05T04:31:43;19.20;99.90
10905;DHT22;5505;51.450;9.254;2022-08-05T04:34:31;19.20;99.90
10905;DHT22;5505;51.450;9.254;2022-08-05T04:37:18;19.20;99.90
10905;DHT22;5505;51.450;9.254;2022-08-05T04:40:06;19.20;99.90
10905;DHT22;5505;51.450;9.254;2022-08-05T04:42:53;19.20;99.90
10905;DHT22;5505;51.450;9.254;2022-08-05T04:45:39;19.20;99.90
10905;DHT22;5505;51.450;9.254;2022-08-05T04:48:26;19.20;99.90
10905;DHT22;5505;51.450;9.254;2022-08-05T04:51:14;19.30;99.90
10905;DHT22;5505;51.450;9.254;2022-08-05T04:54:02;19.40;99.90
10905;DHT22;5505;51.450;9.254;2022-08-05T04:56:48;19.30;99.90
10905;DHT22;5505;51.450;9.254;2022-08-05T04:59:35;19.30;99.90
10905;DHT22;5505;51.450;9.254;2022-08-05T05:02:22;19.30;99.90
10905;DHT22;5505;51.450;9.254;2022-08-05T05:05:09;19.30;99.90
10905;DHT22;5505;51.450;9.254;2022-08-05T05:08:00;19.30;99.90
10905;DHT22;5505;51.450;9.254;2022-08-05T05:10:47;19.30;99.90
10905;DHT22;5505;51.450;9.254;2022-08-05T05:13:34;19.20;99.90
10905;DHT22;5505;51.450;9.254;2022-08-05T05:16:21;19.10;99.90
10905;DHT22;5505;51.450;9.254;2022-08-05T05:19:08;19.10;99.90
10905;DHT22;5505;51.450;9.254;2022-08-05T05:21:54;19.10;99.90
10905;DHT22;5505;51.450;9.254;2022-08-05T05:24:43;19.10;99.90
10905;DHT22;5505;51.450;9.254;2022-08-05T05:27:31;19.10;99.90
10905;DHT22;5505;51.450;9.254;2022-08-05T05:30:18;19.20;99.90
10905;DHT22;5505;51.450;9.254;2022-08-05T05:33:06;19.10;99.90
10905;DHT22;5505;51.450;9.254;2022-08-05T05:35:53;19.10;99.90
10905;DHT22;5505;51.450;9.254;2022-08-05T05:38:40;19.10;99.90
10905;DHT22;5505;51.450;9.254;2022-08-05T05:41:28;19.10;99.90
10905;DHT22;5505;51.450;9.254;2022-08-05T05:44:15;19.00;99.90
10905;DHT22;5505;51.450;9.254;2022-08-05T05:47:02;19.00;99.90
10905;DHT22;5505;51.450;9.254;2022-08-05T05:49:49;19.00;99.90
10905;DHT22;5505;51.450;9.254;2022-08-05T05:52:36;19.00;99.90
10905;DHT22;5505;51.450;9.254;2022-08-05T05:55:23;19.00;99.90
10905;DHT22;5505;51.450;9.254;2022-08-05T05:58:11;19.00;99.90
10905;DHT22;5505;51.450;9.254;2022-08-05T06:00:58;18.90;99.90
10905;DHT22;5505;51.450;9.254;2022-08-05T06:03:45;18.90;99.90
10905;DHT22;5505;51.450;9.254;2022-08-05T06:06:31;18.80;99.90
10905;DHT22;5505;51.450;9.254;2022-08-05T06:09:18;18.70;99.90
10905;DHT22;5505;51.450;9.254;2022-08-05T06:12:06;18.60;99.90
10905;DHT22;5505;51.450;9.254;2022-08-05T06:14:54;18.60;99.90
10905;DHT22;5505;51.450;9.254;2022-08-05T06:17:41;18.60;99.90
10905;DHT22;5505;51.450;9.254;2022-08-05T06:20:28;18.50;99.90
10905;DHT22;5505;51.450;9.254;2022-08-05T06:23:14;18.60;99.90
10905;DHT22;5505;51.450;9.254;2022-08-05T06:26:01;18.60;99.90
10905;DHT22;5505;51.450;9.254;2022-08-05T06:28:48;18.70;99.90
10905;DHT22;5505;51.450;9.254;2022-08-05T06:31:37;18.70;99.90
10905;DHT22;5505;51.450;9.254;2022-08-05T06:34:24;18.70;99.90
10905;DHT22;5505;51.450;9.254;2022-08-05T06:37:10;18.70;99.90
10905;DHT22;5505;51.450;9.254;2022-08-05T06:39:57;18.60;99.90
10905;DHT22;5505;51.450;9.254;2022-08-05T06:42:47;18.70;99.90
10905;DHT22;5505;51.450;9.254;2022-08-05T06:45:34;18.80;99.90
10905;DHT22;5505;51.450;9.254;2022-08-05T06:48:22;18.80;99.90
10905;DHT22;5505;51.450;9.254;2022-08-05T06:51:09;18.80;99.90
10905;DHT22;5505;51.450;9.254;2022-08-05T06:53:56;19.40;99.90
10905;DHT22;5505;51.450;9.254;2022-08-05T06:56:43;18.90;99.90
10905;DHT22;5505;51.450;9.254;2022-08-05T06:59:30;18.90;99.90
10905;DHT22;5505;51.450;9.254;2022-08-05T07:02:17;18.80;99.90
10905;DHT22;5505;51.450;9.254;2022-08-05T07:05:06;18.80;99.90
10905;DHT22;5505;51.450;9.254;2022-08-05T07:07:52;18.90;99.90
10905;DHT22;5505;51.450;9.254;2022-08-05T07:10:39;18.90;99.90
10905;DHT22;5505;51.450;9.254;2022-08-05T07:13:26;18.90;99.90
10905;DHT22;5505;51.450;9.254;2022-08-05T07:16:31;19.00;99.90
10905;DHT22;5505;51.450;9.254;2022-08-05T07:19:36;19.00;99.90
10905;DHT22;5505;51.450;9.254;2022-08-05T07:22:24;19.10;99.90
10905;DHT22;5505;51.450;9.254;2022-08-05T07:25:11;19.20;99.90
10905;DHT22;5505;51.450;9.254;2022-08-05T07:27:58;19.30;99.90
10905;DHT22;5505;51.450;9.254;2022-08-05T07:30:44;19.40;99.90
10905;DHT22;5505;51.450;9.254;2022-08-05T07:33:31;19.40;99.90
10905;DHT22;5505;51.450;9.254;2022-08-05T07:36:18;19.50;99.90
10905;DHT22;5505;51.450;9.254;2022-08-05T07:39:07;19.50;99.90
10905;DHT22;5505;51.450;9.254;2022-08-05T07:41:54;19.50;99.90
10905;DHT22;5505;51.450;9.254;2022-08-05T07:44:41;19.50;99.90
10905;DHT22;5505;51.450;9.254;2022-08-05T07:47:28;19.50;99.90
10905;DHT22;5505;51.450;9.254;2022-08-05T07:50:15;19.60;99.90
10905;DHT22;5505;51.450;9.254;2022-08-05T07:53:02;19.70;99.90
10905;DHT22;5505;51.450;9.254;2022-08-05T07:55:50;19.90;99.90
10905;DHT22;5505;51.450;9.254;2022-08-05T07:58:37;20.10;99.90
10905;DHT22;5505;51.450;9.254;2022-08-05T08:01:24;20.20;99.90
10905;DHT22;5505;51.450;9.254;2022-08-05T08:04:12;20.40;99.90
10905;DHT22;5505;51.450;9.254;2022-08-05T08:06:58;20.70;99.90
10905;DHT22;5505;51.450;9.254;2022-08-05T08:09:46;20.90;99.90
10905;DHT22;5505;51.450;9.254;2022-08-05T08:12:34;20.90;99.90
10905;DHT22;5505;51.450;9.254;2022-08-05T08:15:22;21.00;99.90
10905;DHT22;5505;51.450;9.254;2022-08-05T08:18:09;21.20;99.90
10905;DHT22;5505;51.450;9.254;2022-08-05T08:20:56;21.40;99.90
10905;DHT22;5505;51.450;9.254;2022-08-05T08:23:43;21.60;99.90
10905;DHT22;5505;51.450;9.254;2022-08-05T08:26:29;21.70;99.90
10905;DHT22;5505;51.450;9.254;2022-08-05T08:29:18;22.00;99.90
10905;DHT22;5505;51.450;9.254;2022-08-05T08:32:04;22.20;99.90
10905;DHT22;5505;51.450;9.254;2022-08-05T08:34:51;22.40;99.90
10905;DHT22;5505;51.450;9.254;2022-08-05T08:37:38;22.60;99.90
10905;DHT22;5505;51.450;9.254;2022-08-05T08:40:25;22.90;99.90
10905;DHT22;5505;51.450;9.254;2022-08-05T08:43:12;22.80;99.90
10905;DHT22;5505;51.450;9.254;2022-08-05T08:46:02;22.90;99.90
10905;DHT22;5505;51.450;9.254;2022-08-05T08:48:50;23.00;99.90
10905;DHT22;5505;51.450;9.254;2022-08-05T08:51:40;23.10;99.90
10905;DHT22;5505;51.450;9.254;2022-08-05T08:54:29;23.20;99.90
10905;DHT22;5505;51.450;9.254;2022-08-05T08:57:17;23.30;99.90
10905;DHT22;5505;51.450;9.254;2022-08-05T09:00:05;23.40;99.90
10905;DHT22;5505;51.450;9.254;2022-08-05T09:02:55;23.40;99.90
10905;DHT22;5505;51.450;9.254;2022-08-05T09:05:42;23.40;99.90
10905;DHT22;5505;51.450;9.254;2022-08-05T09:08:29;23.30;99.90
10905;DHT22;5505;51.450;9.254;2022-08-05T09:11:16;23.40;99.90
10905;DHT22;5505;51.450;9.254;2022-08-05T09:14:03;23.60;99.90
10905;DHT22;5505;51.450;9.254;2022-08-05T09:16:50;23.80;99.90
10905;DHT22;5505;51.450;9.254;2022-08-05T09:19:38;23.80;99.90
10905;DHT22;5505;51.450;9.254;2022-08-05T09:22:25;23.80;99.90
10905;DHT22;5505;51.450;9.254;2022-08-05T09:25:18;24.00;99.90
10905;DHT22;5505;51.450;9.254;2022-08-05T09:28:09;24.10;99.90
10905;DHT22;5505;51.450;9.254;2022-08-05T09:31:04;24.10;99.90
10905;DHT22;5505;51.450;9.254;2022-08-05T09:33:53;24.10;99.90
10905;DHT22;5505;51.450;9.254;2022-08-05T09:36:43;24.10;99.90
10905;DHT22;5505;51.450;9.254;2022-08-05T09:39:37;24.20;99.90
10905;DHT22;5505;51.450;9.254;2022-08-05T09:42:24;24.10;99.90
10905;DHT22;5505;51.450;9.254;2022-08-05T09:45:13;23.90;99.90
10905;DHT22;5505;51.450;9.254;2022-08-05T09:48:17;24.30;99.90
10905;DHT22;5505;51.450;9.254;2022-08-05T09:51:07;24.40;99.90
10905;DHT22;5505;51.450;9.254;2022-08-05T09:53:58;24.50;99.90
10905;DHT22;5505;51.450;9.254;2022-08-05T09:56:45;24.50;99.90
10905;DHT22;5505;51.450;9.254;2022-08-05T09:59:31;24.50;99.90
10905;DHT22;5505;51.450;9.254;2022-08-05T10:02:30;24.50;99.90
10905;DHT22;5505;51.450;9.254;2022-08-05T10:05:20;24.20;99.90
10905;DHT22;5505;51.450;9.254;2022-08-05T10:08:07;24.00;99.90
10905;DHT22;5505;51.450;9.254;2022-08-05T10:10:56;23.70;99.90
10905;DHT22;5505;51.450;9.254;2022-08-05T10:13:43;23.50;99.90
10905;DHT22;5505;51.450;9.254;2022-08-05T10:16:31;23.40;99.90
10905;DHT22;5505;51.450;9.254;2022-08-05T10:19:19;23.30;99.90
10905;DHT22;5505;51.450;9.254;2022-08-05T10:22:07;23.20;99.90
10905;DHT22;5505;51.450;9.254;2022-08-05T10:24:54;23.30;99.90
10905;DHT22;5505;51.450;9.254;2022-08-05T10:27:42;23.50;99.90
10905;DHT22;5505;51.450;9.254;2022-08-05T10:30:29;24.50;99.90
10905;DHT22;5505;51.450;9.254;2022-08-05T10:33:16;23.60;99.90
10905;DHT22;5505;51.450;9.254;2022-08-05T10:36:04;23.30;99.90
10905;DHT22;5505;51.450;9.254;2022-08-05T10:38:55;22.90;99.90
10905;DHT22;5505;51.450;9.254;2022-08-05T10:41:48;22.60;99.90
10905;DHT22;5505;51.450;9.254;2022-08-05T10:44:43;22.30;99.90
10905;DHT22;5505;51.450;9.254;2022-08-05T10:47:31;22.10;99.90
10905;DHT22;5505;51.450;9.254;2022-08-05T10:50:20;21.80;99.90
10905;DHT22;5505;51.450;9.254;2022-08-05T10:53:37;21.50;99.90
10905;DHT22;5505;51.450;9.254;2022-08-05T10:56:25;21.10;99.90
10905;DHT22;5505;51.450;9.254;2022-08-05T10:59:16;20.80;99.90
10905;DHT22;5505;51.450;9.254;2022-08-05T11:02:08;20.70;99.90
10905;DHT22;5505;51.450;9.254;2022-08-05T11:04:55;20.60;99.90
10905;DHT22;5505;51.450;9.254;2022-08-05T11:07:55;20.50;99.90
10905;DHT22;5505;51.450;9.254;2022-08-05T11:10:42;20.40;99.90
10905;DHT22;5505;51.450;9.254;2022-08-05T11:13:40;20.40;99.90
10905;DHT22;5505;51.450;9.254;2022-08-05T11:16:29;20.20;99.90
10905;DHT22;5505;51.450;9.254;2022-08-05T11:19:29;20.10;99.90
10905;DHT22;5505;51.450;9.254;2022-08-05T11:22:44;20.00;99.90
10905;DHT22;5505;51.450;9.254;2022-08-05T11:25:34;20.00;99.90
10905;DHT22;5505;51.450;9.254;2022-08-05T11:28:46;20.00;99.90
10905;DHT22;5505;51.450;9.254;2022-08-05T11:31:33;19.90;99.90
10905;DHT22;5505;51.450;9.254;2022-08-05T11:34:36;19.90;99.90
10905;DHT22;5505;51.450;9.254;2022-08-05T11:37:42;19.80;99.90
10905;DHT22;5505;51.450;9.254;2022-08-05T11:40:58;19.70;99.90
10905;DHT22;5505;51.450;9.254;2022-08-05T11:43:52;19.60;99.90
10905;DHT22;5505;51.450;9.254;2022-08-05T11:46:41;19.50;99.90
10905;DHT22;5505;51.450;9.254;2022-08-05T11:49:28;19.50;99.90
10905;DHT22;5505;51.450;9.254;2022-08-05T11:52:23;19.30;99.90
10905;DHT22;5505;51.450;9.254;2022-08-05T11:55:10;19.10;99.90
10905;DHT22;5505;51.450;9.254;2022-08-05T11:57:58;19.00;99.90
10905;DHT22;5505;51.450;9.254;2022-08-05T12:00:44;18.90;99.90
10905;DHT22;5505;51.450;9.254;2022-08-05T12:03:40;18.80;99.90
10905;DHT22;5505;51.450;9.254;2022-08-05T12:06:28;18.60;99.90
10905;DHT22;5505;51.450;9.254;2022-08-05T12:09:20;18.40;99.90
10905;DHT22;5505;51.450;9.254;2022-08-05T12:12:09;18.10;99.90
10905;DHT22;5505;51.450;9.254;2022-08-05T12:14:56;18.00;99.90
10905;DHT22;5505;51.450;9.254;2022-08-05T12:17:44;17.90;99.90
10905;DHT22;5505;51.450;9.254;2022-08-05T12:20:31;17.70;99.90
10905;DHT22;5505;51.450;9.254;2022-08-05T12:23:22;17.70;99.90
10905;DHT22;5505;51.450;9.254;2022-08-05T12:26:11;17.60;99.90
10905;DHT22;5505;51.450;9.254;2022-08-05T12:28:57;17.50;99.90
10905;DHT22;5505;51.450;9.254;2022-08-05T12:31:45;17.40;99.90
10905;DHT22;5505;51.450;9.254;2022-08-05T12:34:34;17.40;99.90
10905;DHT22;5505;51.450;9.254;2022-08-05T12:37:22;17.40;99.90
10905;DHT22;5505;51.450;9.254;2022-08-05T12:40:10;17.30;99.90
10905;DHT22;5505;51.450;9.254;2022-08-05T12:43:01;17.40;99.90
10905;DHT22;5505;51.450;9.254;2022-08-05T12:45:52;17.40;99.90
10905;DHT22;5505;51.450;9.254;2022-08-05T12:48:39;17.40;99.90
10905;DHT22;5505;51.450;9.254;2022-08-05T12:51:26;17.50;99.90
10905;DHT22;5505;51.450;9.254;2022-08-05T12:54:21;17.50;99.90
10905;DHT22;5505;51.450;9.254;2022-08-05T12:57:09;17.50;99.90
10905;DHT22;5505;51.450;9.254;2022-08-05T12:59:58;17.50;99.90
10905;DHT22;5505;51.450;9.254;2022-08-05T13:02:46;17.60;99.90
10905;DHT22;5505;51.450;9.254;2022-08-05T13:05:33;17.60;99.90
10905;DHT22;5505;51.450;9.254;2022-08-05T13:08:22;18.30;99.90
10905;DHT22;5505;51.450;9.254;2022-08-05T13:11:16;17.50;99.90
10905;DHT22;5505;51.450;9.254;2022-08-05T13:14:08;17.50;99.90
10905;DHT22;5505;51.450;9.254;2022-08-05T13:16:57;17.40;99.90
10905;DHT22;5505;51.450;9.254;2022-08-05T13:19:58;17.40;99.90
10905;DHT22;5505;51.450;9.254;2022-08-05T13:22:47;17.40;99.90
10905;DHT22;5505;51.450;9.254;2022-08-05T13:25:34;17.50;99.90
10905;DHT22;5505;51.450;9.254;2022-08-05T13:28:21;17.40;99.90
10905;DHT22;5505;51.450;9.254;2022-08-05T13:31:07;17.50;99.90
10905;DHT22;5505;51.450;9.254;2022-08-05T13:33:56;17.50;99.90
10905;DHT22;5505;51.450;9.254;2022-08-05T13:36:42;17.60;99.90
10905;DHT22;5505;51.450;9.254;2022-08-05T13:39:29;17.70;99.90
10905;DHT22;5505;51.450;9.254;2022-08-05T13:42:16;17.80;99.90
10905;DHT22;5505;51.450;9.254;2022-08-05T13:45:04;18.00;99.90
10905;DHT22;5505;51.450;9.254;2022-08-05T13:47:52;18.10;99.90
10905;DHT22;5505;51.450;9.254;2022-08-05T13:50:40;18.10;99.90
10905;DHT22;5505;51.450;9.254;2022-08-05T13:53:27;18.20;99.90
10905;DHT22;5505;51.450;9.254;2022-08-05T13:56:14;18.20;99.90
10905;DHT22;5505;51.450;9.254;2022-08-05T13:59:00;18.20;99.90
10905;DHT22;5505;51.450;9.254;2022-08-05T14:01:47;18.30;99.90
10905;DHT22;5505;51.450;9.254;2022-08-05T14:04:35;18.30;99.90
10905;DHT22;5505;51.450;9.254;2022-08-05T14:07:43;18.30;99.90
10905;DHT22;5505;51.450;9.254;2022-08-05T14:10:31;18.30;99.90
10905;DHT22;5505;51.450;9.254;2022-08-05T14:13:19;18.30;99.90
10905;DHT22;5505;51.450;9.254;2022-08-05T14:16:06;18.40;99.90
10905;DHT22;5505;51.450;9.254;2022-08-05T14:18:53;18.40;99.90
10905;DHT22;5505;51.450;9.254;2022-08-05T14:21:40;18.40;99.90
10905;DHT22;5505;51.450;9.254;2022-08-05T14:24:28;18.40;99.90
10905;DHT22;5505;51.450;9.254;2022-08-05T14:27:15;18.40;99.90
10905;DHT22;5505;51.450;9.254;2022-08-05T14:30:02;18.40;99.90
10905;DHT22;5505;51.450;9.254;2022-08-05T14:32:49;18.40;99.90
10905;DHT22;5505;51.450;9.254;2022-08-05T14:35:36;18.40;99.90
10905;DHT22;5505;51.450;9.254;2022-08-05T14:38:23;18.50;99.90
10905;DHT22;5505;51.450;9.254;2022-08-05T14:41:12;18.50;99.90
10905;DHT22;5505;51.450;9.254;2022-08-05T14:43:59;18.50;99.90
10905;DHT22;5505;51.450;9.254;2022-08-05T14:46:45;18.50;99.90
10905;DHT22;5505;51.450;9.254;2022-08-05T14:49:32;18.40;99.90
10905;DHT22;5505;51.450;9.254;2022-08-05T14:52:19;18.40;99.90
10905;DHT22;5505;51.450;9.254;2022-08-05T14:55:07;19.10;99.90
10905;DHT22;5505;51.450;9.254;2022-08-05T14:57:55;18.60;99.90
10905;DHT22;5505;51.450;9.254;2022-08-05T15:00:42;18.70;99.90
10905;DHT22;5505;51.450;9.254;2022-08-05T15:03:30;18.80;99.90
10905;DHT22;5505;51.450;9.254;2022-08-05T15:06:17;18.90;99.90
10905;DHT22;5505;51.450;9.254;2022-08-05T15:09:04;19.30;99.90
10905;DHT22;5505;51.450;9.254;2022-08-05T15:11:51;19.50;99.90
10905;DHT22;5505;51.450;9.254;2022-08-05T15:14:39;19.80;99.90
10905;DHT22;5505;51.450;9.254;2022-08-05T15:17:26;20.00;99.90
10905;DHT22;5505;51.450;9.254;2022-08-05T15:20:13;20.00;99.90
10905;DHT22;5505;51.450;9.254;2022-08-05T15:23:02;20.00;99.90
10905;DHT22;5505;51.450;9.254;2022-08-05T15:25:49;19.80;99.90
10905;DHT22;5505;51.450;9.254;2022-08-05T15:28:36;19.70;99.90
10905;DHT22;5505;51.450;9.254;2022-08-05T15:31:24;19.70;99.90
10905;DHT22;5505;51.450;9.254;2022-08-05T15:34:11;19.70;99.90
10905;DHT22;5505;51.450;9.254;2022-08-05T15:36:58;19.70;99.90
10905;DHT22;5505;51.450;9.254;2022-08-05T15:39:44;19.70;99.90
10905;DHT22;5505;51.450;9.254;2022-08-05T15:42:31;19.80;99.90
10905;DHT22;5505;51.450;9.254;2022-08-05T15:45:19;19.60;99.90
10905;DHT22;5505;51.450;9.254;2022-08-05T15:48:07;19.60;99.90
10905;DHT22;5505;51.450;9.254;2022-08-05T15:50:54;19.70;99.90
10905;DHT22;5505;51.450;9.254;2022-08-05T15:53:41;19.80;99.90
10905;DHT22;5505;51.450;9.254;2022-08-05T15:56:28;19.80;99.90
10905;DHT22;5505;51.450;9.254;2022-08-05T15:59:15;20.00;99.90
10905;DHT22;5505;51.450;9.254;2022-08-05T16:02:02;20.10;99.90
10905;DHT22;5505;51.450;9.254;2022-08-05T16:04:50;20.00;99.90
10905;DHT22;5505;51.450;9.254;2022-08-05T16:07:37;20.00;99.90
10905;DHT22;5505;51.450;9.254;2022-08-05T16:10:24;20.00;99.90
10905;DHT22;5505;51.450;9.254;2022-08-05T16:13:11;20.20;99.90
10905;DHT22;5505;51.450;9.254;2022-08-05T16:15:58;20.20;99.90
10905;DHT22;5505;51.450;9.254;2022-08-05T16:18:44;20.30;99.90
10905;DHT22;5505;51.450;9.254;2022-08-05T16:21:32;20.30;99.90
10905;DHT22;5505;51.450;9.254;2022-08-05T16:24:19;20.40;99.90
10905;DHT22;5505;51.450;9.254;2022-08-05T16:27:06;20.40;99.90
10905;DHT22;5505;51.450;9.254;2022-08-05T16:29:53;20.40;99.90
10905;DHT22;5505;51.450;9.254;2022-08-05T16:32:40;20.40;99.90
10905;DHT22;5505;51.450;9.254;2022-08-05T16:35:27;20.40;99.90
10905;DHT22;5505;51.450;9.254;2022-08-05T16:38:15;20.40;99.90
10905;DHT22;5505;51.450;9.254;2022-08-05T16:41:02;20.40;99.90
10905;DHT22;5505;51.450;9.254;2022-08-05T16:43:49;20.30;99.90
10905;DHT22;5505;51.450;9.254;2022-08-05T16:46:36;20.20;99.90
10905;DHT22;5505;51.450;9.254;2022-08-05T16:49:24;20.10;99.90
10905;DHT22;5505;51.450;9.254;2022-08-05T16:52:11;20.00;99.90
10905;DHT22;5505;51.450;9.254;2022-08-05T16:54:59;19.90;99.90
10905;DHT22;5505;51.450;9.254;2022-08-05T16:57:46;19.80;99.90
10905;DHT22;5505;51.450;9.254;2022-08-05T17:00:33;19.70;99.90
10905;DHT22;5505;51.450;9.254;2022-08-05T17:03:20;19.60;99.90
10905;DHT22;5505;51.450;9.254;2022-08-05T17:06:07;19.60;99.90
10905;DHT22;5505;51.450;9.254;2022-08-05T17:08:54;19.70;99.90
10905;DHT22;5505;51.450;9.254;2022-08-05T17:11:42;19.80;99.90
10905;DHT22;5505;51.450;9.254;2022-08-05T17:14:29;19.90;99.90
10905;DHT22;5505;51.450;9.254;2022-08-05T17:17:16;20.10;99.90
10905;DHT22;5505;51.450;9.254;2022-08-05T17:20:05;20.30;99.90
10905;DHT22;5505;51.450;9.254;2022-08-05T17:22:52;19.40;99.90
10905;DHT22;5505;51.450;9.254;2022-08-05T17:25:39;20.30;99.90
10905;DHT22;5505;51.450;9.254;2022-08-05T17:28:27;20.20;99.90
10905;DHT22;5505;51.450;9.254;2022-08-05T17:31:14;20.00;99.90
10905;DHT22;5505;51.450;9.254;2022-08-05T17:34:01;18.60;99.90
10905;DHT22;5505;51.450;9.254;2022-08-05T17:36:48;19.90;99.90
10905;DHT22;5505;51.450;9.254;2022-08-05T17:39:34;19.80;99.90
10905;DHT22;5505;51.450;9.254;2022-08-05T17:42:21;19.80;99.90
10905;DHT22;5505;51.450;9.254;2022-08-05T17:45:10;19.80;99.90
10905;DHT22;5505;51.450;9.254;2022-08-05T17:47:57;19.70;99.90
10905;DHT22;5505;51.450;9.254;2022-08-05T17:50:44;19.60;99.90
10905;DHT22;5505;51.450;9.254;2022-08-05T17:53:31;19.70;99.90
10905;DHT22;5505;51.450;9.254;2022-08-05T17:56:18;19.70;99.90
10905;DHT22;5505;51.450;9.254;2022-08-05T17:59:05;19.80;99.90
10905;DHT22;5505;51.450;9.254;2022-08-05T18:01:53;19.80;99.90
10905;DHT22;5505;51.450;9.254;2022-08-05T18:04:40;19.70;99.90
10905;DHT22;5505;51.450;9.254;2022-08-05T18:07:26;19.70;99.90